createdAt,value
2019-03-03T00:00:45.881Z,5.93
2019-03-03T00:01:45.892Z,5.99
2019-03-03T00:02:45.866Z,6
2019-03-03T00:03:45.840Z,5.97
2019-03-03T00:04:45.843Z,6.04
2019-03-03T00:05:45.815Z,6.01
2019-03-03T00:06:45.795Z,6.09
2019-03-03T00:07:45.783Z,6.14
2019-03-03T00:08:45.778Z,6.17
2019-03-03T00:09:45.760Z,6.17
2019-03-03T00:10:45.744Z,6.17
2019-03-03T00:11:45.732Z,6.18
2019-03-03T00:12:45.715Z,6.31
2019-03-03T00:13:45.736Z,6.31
2019-03-03T00:14:45.691Z,6.38
2019-03-03T00:15:45.691Z,6.38
2019-03-03T00:16:45.661Z,6.36
2019-03-03T00:17:45.647Z,6.38
2019-03-03T00:18:45.633Z,6.4
2019-03-03T00:19:45.621Z,6.46
2019-03-03T00:20:45.608Z,6.51
2019-03-03T00:21:45.596Z,6.55
2019-03-03T00:22:45.590Z,6.59
2019-03-03T00:23:45.571Z,6.62
2019-03-03T00:24:45.557Z,6.66
2019-03-03T00:25:45.560Z,6.67
2019-03-03T00:26:45.527Z,6.71
2019-03-03T00:27:45.528Z,6.67
2019-03-03T00:28:45.500Z,6.74
2019-03-03T00:29:45.494Z,6.7
2019-03-03T00:30:45.477Z,6.8
2019-03-03T00:31:45.466Z,6.81
2019-03-03T00:32:45.448Z,6.81
2019-03-03T00:33:45.436Z,6.84
2019-03-03T00:34:45.424Z,6.85
2019-03-03T00:35:45.420Z,6.8
2019-03-03T00:36:45.397Z,6.81
2019-03-03T00:37:45.395Z,6.88
2019-03-03T00:38:45.369Z,6.89
2019-03-03T00:39:45.356Z,6.98
2019-03-03T00:40:45.345Z,6.95
2019-03-03T00:41:45.329Z,6.99
2019-03-03T00:42:45.320Z,7.05
2019-03-03T00:43:45.307Z,6.95
2019-03-03T00:44:46.003Z,7.05
2019-03-03T00:45:45.289Z,6.97
2019-03-03T00:46:45.264Z,7.05
2019-03-03T00:47:45.252Z,7.09
2019-03-03T00:48:45.244Z,7.06
2019-03-03T00:49:45.222Z,7.02
2019-03-03T00:50:45.215Z,7.16
2019-03-03T00:51:45.199Z,7.15
2019-03-03T00:52:45.187Z,7.16
2019-03-03T00:53:45.178Z,7.17
2019-03-03T00:54:45.172Z,7.31
2019-03-03T00:55:45.149Z,7.27
2019-03-03T00:56:45.136Z,7.3
2019-03-03T00:57:45.122Z,7.34
2019-03-03T00:58:45.114Z,7.27
2019-03-03T00:59:45.098Z,7.37
2019-03-03T01:00:45.085Z,7.4
2019-03-03T01:01:45.071Z,7.35
2019-03-03T01:02:45.061Z,7.43
2019-03-03T01:03:45.051Z,7.37
2019-03-03T01:04:45.033Z,7.45
2019-03-03T01:05:45.061Z,7.58
2019-03-03T01:06:45.010Z,7.52
2019-03-03T01:07:45.044Z,7.45
2019-03-03T01:08:44.982Z,7.67
2019-03-03T01:09:44.973Z,7.55
2019-03-03T01:10:44.958Z,7.53
2019-03-03T01:11:44.950Z,7.53
2019-03-03T01:12:44.934Z,7.58
2019-03-03T01:13:44.915Z,7.58
2019-03-03T01:14:44.912Z,7.69
2019-03-03T01:15:44.893Z,7.55
2019-03-03T01:16:44.895Z,7.63
2019-03-03T01:17:44.875Z,7.67
2019-03-03T01:18:44.862Z,7.61
2019-03-03T01:19:44.847Z,7.57
2019-03-03T01:20:44.833Z,7.67
2019-03-03T01:21:45.079Z,7.67
2019-03-03T01:22:44.807Z,7.64
2019-03-03T01:23:44.800Z,7.69
2019-03-03T01:24:44.787Z,7.75
2019-03-03T01:25:44.773Z,7.71
2019-03-03T01:26:44.757Z,7.79
2019-03-03T01:27:44.749Z,7.8
2019-03-03T01:28:44.739Z,7.8
2019-03-03T01:29:44.729Z,7.72
2019-03-03T01:30:44.711Z,7.82
2019-03-03T01:31:44.697Z,7.8
2019-03-03T01:32:44.736Z,7.87
2019-03-03T01:33:44.675Z,7.89
2019-03-03T01:34:44.662Z,7.93
2019-03-03T01:35:44.652Z,7.92
2019-03-03T01:36:44.640Z,7.89
2019-03-03T01:37:44.624Z,7.89
2019-03-03T01:38:44.616Z,7.98
2019-03-03T01:39:44.603Z,8
2019-03-03T01:40:44.587Z,7.98
2019-03-03T01:41:44.588Z,8.01
2019-03-03T01:42:44.363Z,7.97
2019-03-03T01:43:44.551Z,8.04
2019-03-03T01:44:44.538Z,8
2019-03-03T01:45:44.524Z,8.07
2019-03-03T01:46:44.512Z,8.04
2019-03-03T01:47:44.500Z,7.98
2019-03-03T01:48:44.492Z,8.12
2019-03-03T01:49:44.475Z,8.11
2019-03-03T01:50:44.466Z,8.15
2019-03-03T01:51:44.451Z,8.15
2019-03-03T01:52:44.439Z,8.16
2019-03-03T01:53:44.426Z,8.15
2019-03-03T01:54:44.414Z,8.15
2019-03-03T01:55:44.157Z,8.16
2019-03-03T01:56:44.386Z,8.22
2019-03-03T01:57:44.380Z,8.18
2019-03-03T01:58:44.367Z,8.29
2019-03-03T01:59:44.356Z,8.33
2019-03-03T02:00:45.005Z,8.26
2019-03-03T02:01:44.327Z,8.34
2019-03-03T02:02:44.318Z,8.34
2019-03-03T02:03:44.305Z,8.38
2019-03-03T02:04:44.297Z,8.48
2019-03-03T02:05:44.283Z,8.48
2019-03-03T02:06:44.268Z,8.44
2019-03-03T02:07:44.015Z,8.47
2019-03-03T02:08:44.245Z,8.45
2019-03-03T02:09:44.235Z,8.38
2019-03-03T02:10:44.232Z,8.53
2019-03-03T02:11:44.209Z,8.55
2019-03-03T02:12:44.197Z,8.48
2019-03-03T02:13:44.185Z,8.48
2019-03-03T02:14:44.177Z,8.53
2019-03-03T02:15:44.163Z,8.53
2019-03-03T02:16:44.147Z,8.5
2019-03-03T02:17:44.137Z,8.53
2019-03-03T02:18:44.131Z,8.45
2019-03-03T02:19:44.112Z,8.56
2019-03-03T02:20:44.104Z,8.62
2019-03-03T02:21:44.091Z,8.55
2019-03-03T02:22:44.080Z,8.61
2019-03-03T02:23:43.827Z,8.61
2019-03-03T02:24:44.054Z,8.66
2019-03-03T02:25:44.045Z,8.62
2019-03-03T02:26:44.033Z,8.66
2019-03-03T02:27:44.023Z,8.61
2019-03-03T02:28:44.010Z,8.68
2019-03-03T02:29:44.004Z,8.71
2019-03-03T02:30:43.993Z,8.7
2019-03-03T02:31:43.979Z,8.62
2019-03-03T02:32:43.969Z,8.7
2019-03-03T02:33:43.954Z,8.73
2019-03-03T02:34:43.956Z,8.7
2019-03-03T02:35:43.707Z,8.74
2019-03-03T02:36:43.935Z,8.8
2019-03-03T02:37:43.912Z,8.8
2019-03-03T02:38:43.913Z,8.81
2019-03-03T02:39:43.899Z,8.79
2019-03-03T02:40:43.876Z,8.8
2019-03-03T02:41:43.860Z,8.81
2019-03-03T02:42:43.852Z,8.81
2019-03-03T02:43:43.974Z,8.86
2019-03-03T02:44:43.832Z,8.95
2019-03-03T02:45:43.829Z,8.86
2019-03-03T02:46:43.578Z,8.98
2019-03-03T02:47:43.813Z,8.96
2019-03-03T02:48:43.782Z,8.98
2019-03-03T02:49:43.774Z,8.98
2019-03-03T02:50:43.755Z,8.91
2019-03-03T02:51:43.738Z,8.96
2019-03-03T02:52:43.755Z,8.91
2019-03-03T02:53:43.715Z,8.92
2019-03-03T02:54:43.719Z,8.91
2019-03-03T02:55:43.695Z,8.96
2019-03-03T02:56:43.689Z,8.95
2019-03-03T02:57:43.681Z,8.92
2019-03-03T02:58:43.668Z,8.84
2019-03-03T02:59:43.655Z,8.8
2019-03-03T03:00:43.656Z,8.8
2019-03-03T03:01:43.628Z,8.77
2019-03-03T03:02:43.646Z,8.77
2019-03-03T03:03:43.370Z,8.79
2019-03-03T03:04:43.599Z,8.83
2019-03-03T03:05:43.582Z,8.77
2019-03-03T03:06:43.648Z,8.8
2019-03-03T03:07:43.642Z,8.8
2019-03-03T03:08:43.558Z,8.81
2019-03-03T03:09:43.539Z,8.81
2019-03-03T03:10:44.330Z,8.74
2019-03-03T03:11:43.505Z,8.68
2019-03-03T03:12:43.502Z,8.84
2019-03-03T03:13:43.484Z,8.79
2019-03-03T03:14:43.486Z,8.77
2019-03-03T03:15:45.329Z,8.76
2019-03-03T03:16:43.451Z,8.8
2019-03-03T03:17:43.443Z,8.81
2019-03-03T03:18:43.443Z,8.79
2019-03-03T03:19:43.435Z,8.81
2019-03-03T03:20:43.414Z,8.79
2019-03-03T03:21:43.403Z,8.77
2019-03-03T03:22:43.393Z,8.74
2019-03-03T03:23:43.393Z,8.79
2019-03-03T03:24:43.384Z,8.83
2019-03-03T03:25:43.350Z,8.86
2019-03-03T03:26:43.350Z,8.84
2019-03-03T03:27:43.331Z,8.89
2019-03-03T03:28:43.313Z,8.89
2019-03-03T03:29:43.318Z,8.89
2019-03-03T03:30:43.328Z,8.81
2019-03-03T03:31:43.598Z,8.8
2019-03-03T03:32:43.320Z,8.74
2019-03-03T03:33:43.311Z,8.8
2019-03-03T03:34:43.254Z,8.8
2019-03-03T03:35:43.237Z,8.84
2019-03-03T03:36:43.237Z,8.86
2019-03-03T03:37:43.268Z,8.84
2019-03-03T03:38:43.206Z,8.89
2019-03-03T03:39:43.205Z,8.89
2019-03-03T03:40:43.183Z,8.89
2019-03-03T03:41:43.191Z,8.95
2019-03-03T03:42:43.168Z,8.94
2019-03-03T03:43:43.155Z,8.98
2019-03-03T03:44:43.146Z,8.92
2019-03-03T03:45:43.121Z,8.94
2019-03-03T03:46:43.105Z,8.89
2019-03-03T03:47:43.094Z,8.89
2019-03-03T03:48:43.094Z,8.89
2019-03-03T03:49:43.080Z,8.86
2019-03-03T03:50:43.065Z,8.84
2019-03-03T03:51:43.068Z,8.83
2019-03-03T03:52:43.040Z,8.8
2019-03-03T03:53:43.026Z,8.77
2019-03-03T03:54:43.015Z,8.84
2019-03-03T03:55:43.014Z,8.71
2019-03-03T03:56:42.996Z,8.71
2019-03-03T03:57:42.738Z,8.74
2019-03-03T03:58:42.988Z,8.76
2019-03-03T03:59:42.969Z,8.68
2019-03-03T04:00:42.944Z,8.62
2019-03-03T04:01:42.946Z,8.68
2019-03-03T04:02:42.681Z,8.71
2019-03-03T04:03:42.921Z,8.58
2019-03-03T04:04:42.896Z,8.68
2019-03-03T04:05:42.884Z,8.61
2019-03-03T04:06:42.877Z,8.66
2019-03-03T04:07:42.932Z,8.55
2019-03-03T04:08:42.849Z,8.61
2019-03-03T04:09:42.845Z,8.73
2019-03-03T04:10:42.831Z,8.71
2019-03-03T04:11:42.816Z,8.65
2019-03-03T04:12:42.809Z,8.59
2019-03-03T04:13:42.795Z,8.61
2019-03-03T04:14:42.807Z,8.52
2019-03-03T04:15:42.773Z,8.58
2019-03-03T04:16:42.760Z,8.62
2019-03-03T04:17:42.752Z,8.55
2019-03-03T04:18:57.405Z,8.47
2019-03-03T04:19:42.732Z,8.5
2019-03-03T04:20:42.721Z,8.48
2019-03-03T04:21:42.700Z,8.53
2019-03-03T04:22:42.686Z,8.48
2019-03-03T04:23:42.671Z,8.38
2019-03-03T04:24:42.668Z,8.47
2019-03-03T04:25:42.654Z,8.37
2019-03-03T04:26:42.638Z,8.43
2019-03-03T04:27:42.628Z,8.44
2019-03-03T04:28:42.613Z,8.52
2019-03-03T04:29:42.607Z,8.47
2019-03-03T04:30:42.590Z,8.48
2019-03-03T04:31:42.587Z,8.44
2019-03-03T04:32:42.571Z,8.41
2019-03-03T04:33:42.575Z,8.45
2019-03-03T04:34:42.550Z,8.45
2019-03-03T04:35:42.534Z,8.47
2019-03-03T04:36:42.523Z,8.5
2019-03-03T04:37:42.506Z,8.44
2019-03-03T04:38:42.493Z,8.4
2019-03-03T04:39:42.487Z,8.43
2019-03-03T04:40:42.476Z,8.38
2019-03-03T04:41:42.461Z,8.45
2019-03-03T04:42:42.448Z,8.37
2019-03-03T04:43:42.436Z,8.48
2019-03-03T04:44:42.423Z,8.47
2019-03-03T04:45:42.412Z,8.48
2019-03-03T04:46:42.398Z,8.55
2019-03-03T04:47:42.387Z,8.62
2019-03-03T04:48:42.377Z,8.65
2019-03-03T04:49:42.369Z,8.56
2019-03-03T04:50:42.355Z,8.73
2019-03-03T04:51:42.343Z,8.74
2019-03-03T04:52:42.324Z,8.76
2019-03-03T04:53:42.316Z,8.8
2019-03-03T04:54:42.312Z,8.74
2019-03-03T04:55:42.297Z,8.83
2019-03-03T04:56:42.279Z,8.87
2019-03-03T04:57:42.270Z,8.89
2019-03-03T04:58:42.014Z,8.95
2019-03-03T04:59:42.245Z,9.01
2019-03-03T05:00:42.241Z,9.04
2019-03-03T05:01:42.223Z,9.02
2019-03-03T05:02:42.213Z,9.01
2019-03-03T05:03:42.200Z,9.14
2019-03-03T05:04:42.190Z,9.15
2019-03-03T05:05:42.177Z,9.2
2019-03-03T05:06:42.163Z,9.24
2019-03-03T05:07:42.159Z,9.15
2019-03-03T05:08:42.191Z,9.24
2019-03-03T05:09:42.142Z,9.31
2019-03-03T05:10:42.121Z,9.29
2019-03-03T05:11:42.108Z,9.32
2019-03-03T05:12:41.894Z,9.39
2019-03-03T05:13:42.086Z,9.33
2019-03-03T05:14:42.074Z,9.36
2019-03-03T05:15:42.100Z,9.4
2019-03-03T05:16:42.049Z,9.43
2019-03-03T05:17:42.041Z,9.4
2019-03-03T05:18:42.031Z,9.43
2019-03-03T05:19:42.018Z,9.36
2019-03-03T05:20:42.006Z,9.5
2019-03-03T05:21:42.000Z,9.46
2019-03-03T05:22:41.983Z,9.42
2019-03-03T05:23:41.972Z,9.53
2019-03-03T05:24:41.966Z,9.47
2019-03-03T05:25:41.955Z,9.54
2019-03-03T05:26:41.941Z,9.56
2019-03-03T05:27:41.928Z,9.64
2019-03-03T05:28:41.963Z,9.6
2019-03-03T05:29:41.913Z,9.72
2019-03-03T05:30:41.897Z,9.65
2019-03-03T05:31:41.884Z,9.72
2019-03-03T05:32:41.876Z,9.71
2019-03-03T05:33:41.858Z,9.68
2019-03-03T05:34:41.896Z,9.69
2019-03-03T05:35:41.835Z,9.69
2019-03-03T05:36:41.826Z,9.65
2019-03-03T05:37:41.570Z,9.76
2019-03-03T05:38:41.835Z,9.78
2019-03-03T05:39:41.793Z,9.72
2019-03-03T05:40:41.782Z,9.84
2019-03-03T05:41:41.770Z,9.87
2019-03-03T05:42:41.760Z,9.83
2019-03-03T05:43:41.747Z,9.84
2019-03-03T05:44:41.741Z,9.83
2019-03-03T05:45:41.731Z,9.84
2019-03-03T05:46:41.715Z,9.86
2019-03-03T05:47:41.705Z,9.83
2019-03-03T05:48:41.695Z,9.86
2019-03-03T05:49:41.699Z,9.86
2019-03-03T05:50:41.675Z,9.89
2019-03-03T05:51:41.661Z,9.94
2019-03-03T05:52:41.660Z,9.99
2019-03-03T05:53:41.644Z,9.91
2019-03-03T05:54:41.630Z,10.01
2019-03-03T05:55:41.622Z,9.89
2019-03-03T05:56:41.616Z,9.91
2019-03-03T05:57:41.596Z,10.01
2019-03-03T05:58:41.588Z,9.94
2019-03-03T05:59:41.576Z,9.93
2019-03-03T06:00:41.562Z,9.94
2019-03-03T06:01:41.566Z,10.04
2019-03-03T06:02:41.542Z,10.02
2019-03-03T06:03:41.528Z,10.02
2019-03-03T06:04:41.520Z,10.08
2019-03-03T06:05:41.514Z,10.04
2019-03-03T06:06:41.502Z,10.12
2019-03-03T06:07:41.246Z,10.11
2019-03-03T06:08:41.529Z,10.09
2019-03-03T06:09:41.466Z,10.04
2019-03-03T06:10:41.456Z,10.08
2019-03-03T06:11:41.445Z,10.08
2019-03-03T06:12:41.437Z,10.18
2019-03-03T06:13:41.424Z,10.05
2019-03-03T06:14:41.414Z,10.2
2019-03-03T06:15:41.415Z,10.2
2019-03-03T06:16:41.393Z,10.25
2019-03-03T06:17:41.383Z,10.2
2019-03-03T06:18:41.371Z,10.17
2019-03-03T06:19:41.361Z,10.23
2019-03-03T06:20:41.349Z,10.26
2019-03-03T06:21:41.340Z,10.33
2019-03-03T06:22:41.331Z,10.33
2019-03-03T06:23:41.075Z,10.33
2019-03-03T06:24:41.308Z,10.34
2019-03-03T06:25:41.072Z,10.41
2019-03-03T06:26:41.288Z,10.34
2019-03-03T06:27:41.276Z,10.32
2019-03-03T06:28:41.020Z,10.33
2019-03-03T06:29:41.255Z,10.32
2019-03-03T06:30:41.244Z,10.36
2019-03-03T06:31:41.234Z,10.38
2019-03-03T06:32:41.223Z,10.41
2019-03-03T06:33:40.974Z,10.42
2019-03-03T06:34:41.201Z,10.45
2019-03-03T06:35:41.191Z,10.42
2019-03-03T06:36:41.180Z,10.42
2019-03-03T06:37:41.170Z,10.48
2019-03-03T06:38:41.158Z,10.55
2019-03-03T06:39:41.151Z,10.59
2019-03-03T06:40:41.140Z,10.52
2019-03-03T06:41:41.127Z,10.51
2019-03-03T06:42:41.119Z,10.52
2019-03-03T06:43:40.867Z,10.52
2019-03-03T06:44:41.096Z,10.52
2019-03-03T06:45:41.087Z,10.63
2019-03-03T06:46:41.087Z,10.67
2019-03-03T06:47:41.075Z,10.67
2019-03-03T06:48:40.862Z,10.66
2019-03-03T06:49:41.044Z,10.73
2019-03-03T06:50:41.034Z,10.81
2019-03-03T06:51:41.024Z,10.7
2019-03-03T06:52:41.014Z,10.79
2019-03-03T06:53:40.759Z,10.79
2019-03-03T06:54:40.997Z,10.82
2019-03-03T06:55:40.988Z,10.82
2019-03-03T06:56:40.974Z,10.79
2019-03-03T06:57:40.962Z,10.94
2019-03-03T06:58:40.706Z,10.88
2019-03-03T06:59:40.952Z,10.89
2019-03-03T07:00:40.932Z,10.85
2019-03-03T07:01:40.964Z,10.92
2019-03-03T07:03:40.923Z,10.96
2019-03-03T07:04:40.889Z,10.85
2019-03-03T07:05:40.881Z,10.91
2019-03-03T07:06:40.881Z,10.88
2019-03-03T07:07:40.868Z,10.94
2019-03-03T07:08:40.607Z,11
2019-03-03T07:09:40.843Z,11
2019-03-03T07:10:40.833Z,10.92
2019-03-03T07:11:40.826Z,11.03
2019-03-03T07:12:40.809Z,11.03
2019-03-03T07:13:40.801Z,11.04
2019-03-03T07:14:40.789Z,11.1
2019-03-03T07:15:40.780Z,11.09
2019-03-03T07:16:40.776Z,11.15
2019-03-03T07:17:40.761Z,11.11
2019-03-03T07:18:40.762Z,11.11
2019-03-03T07:19:40.741Z,11.15
2019-03-03T07:20:40.733Z,11.17
2019-03-03T07:21:40.721Z,11.27
2019-03-03T07:22:40.710Z,11.24
2019-03-03T07:23:40.705Z,11.22
2019-03-03T07:24:40.448Z,11.28
2019-03-03T07:25:40.977Z,11.35
2019-03-03T07:26:40.672Z,11.28
2019-03-03T07:27:40.660Z,11.25
2019-03-03T07:28:40.659Z,11.29
2019-03-03T07:29:40.653Z,11.37
2019-03-03T07:30:40.639Z,11.42
2019-03-03T07:31:40.622Z,11.37
2019-03-03T07:32:40.613Z,11.44
2019-03-03T07:33:40.613Z,11.49
2019-03-03T07:34:40.594Z,11.52
2019-03-03T07:35:40.581Z,11.51
2019-03-03T07:36:40.574Z,11.52
2019-03-03T07:37:40.563Z,11.52
2019-03-03T07:38:40.555Z,11.49
2019-03-03T07:39:40.544Z,11.54
2019-03-03T07:40:40.535Z,11.54
2019-03-03T07:41:40.532Z,11.58
2019-03-03T07:42:40.519Z,11.61
2019-03-03T07:43:40.506Z,11.75
2019-03-03T07:44:40.504Z,11.69
2019-03-03T07:45:40.492Z,11.67
2019-03-03T07:46:40.479Z,11.67
2019-03-03T07:47:40.470Z,11.72
2019-03-03T07:48:40.462Z,11.79
2019-03-03T07:49:40.449Z,11.79
2019-03-03T07:50:40.440Z,11.8
2019-03-03T07:51:40.433Z,11.75
2019-03-03T07:52:40.429Z,11.86
2019-03-03T07:53:40.418Z,11.95
2019-03-03T07:54:40.409Z,11.88
2019-03-03T07:55:40.430Z,11.91
2019-03-03T07:56:40.403Z,12.01
2019-03-03T07:57:40.382Z,11.99
2019-03-03T07:58:40.366Z,11.98
2019-03-03T07:59:40.363Z,12.07
2019-03-03T08:00:40.107Z,12.02
2019-03-03T08:01:40.347Z,12.05
2019-03-03T08:02:40.327Z,12.2
2019-03-03T08:03:40.321Z,12.27
2019-03-03T08:04:40.311Z,12.27
2019-03-03T08:05:40.301Z,12.35
2019-03-03T08:06:40.316Z,12.37
2019-03-03T08:07:40.285Z,12.47
2019-03-03T08:08:40.278Z,12.46
2019-03-03T08:09:40.265Z,12.42
2019-03-03T08:10:40.014Z,12.45
2019-03-03T08:11:40.247Z,12.49
2019-03-03T08:12:40.239Z,12.52
2019-03-03T08:13:40.230Z,12.6
2019-03-03T08:14:40.225Z,12.6
2019-03-03T08:15:40.215Z,12.56
2019-03-03T08:16:40.210Z,12.59
2019-03-03T08:17:40.195Z,12.65
2019-03-03T08:18:40.190Z,12.6
2019-03-03T08:19:40.180Z,12.67
2019-03-03T08:20:40.171Z,12.7
2019-03-03T08:21:40.161Z,12.78
2019-03-03T08:22:40.151Z,12.83
2019-03-03T08:23:40.146Z,12.85
2019-03-03T08:24:40.141Z,12.86
2019-03-03T08:25:40.146Z,12.82
2019-03-03T08:26:40.118Z,12.93
2019-03-03T08:27:40.116Z,12.89
2019-03-03T08:28:40.101Z,12.82
2019-03-03T08:29:40.096Z,12.87
2019-03-03T08:30:40.083Z,12.97
2019-03-03T08:31:40.082Z,13.03
2019-03-03T08:32:40.070Z,13.14
2019-03-03T08:33:40.061Z,13.15
2019-03-03T08:34:40.059Z,13.22
2019-03-03T08:35:40.058Z,13.42
2019-03-03T08:36:40.035Z,13.39
2019-03-03T08:37:40.036Z,13.57
2019-03-03T08:38:40.019Z,13.63
2019-03-03T08:39:40.016Z,13.69
2019-03-03T08:40:40.006Z,13.73
2019-03-03T08:41:39.997Z,13.84
2019-03-03T08:42:39.990Z,13.95
2019-03-03T08:43:39.979Z,14.14
2019-03-03T08:44:39.973Z,14.14
2019-03-03T08:45:39.969Z,14.2
2019-03-03T08:46:39.959Z,14.27
2019-03-03T08:47:39.951Z,14.27
2019-03-03T08:48:40.858Z,14.22
2019-03-03T08:49:39.942Z,14.37
2019-03-03T08:50:39.932Z,14.35
2019-03-03T08:51:39.925Z,14.36
2019-03-03T08:52:39.924Z,14.35
2019-03-03T08:53:39.919Z,14.2
2019-03-03T08:54:39.905Z,14.24
2019-03-03T08:55:39.900Z,14.18
2019-03-03T08:56:39.652Z,14.2
2019-03-03T08:57:39.889Z,14.24
2019-03-03T08:58:39.880Z,14.36
2019-03-03T08:59:39.870Z,14.35
2019-03-03T09:00:39.860Z,14.33
2019-03-03T09:01:39.856Z,14.46
2019-03-03T09:02:39.848Z,14.47
2019-03-03T09:03:39.841Z,14.55
2019-03-03T09:04:39.834Z,14.58
2019-03-03T09:05:40.331Z,14.55
2019-03-03T09:06:39.823Z,14.58
2019-03-03T09:07:39.814Z,14.51
2019-03-03T09:08:39.808Z,14.55
2019-03-03T09:09:39.802Z,14.57
2019-03-03T09:10:39.553Z,14.57
2019-03-03T09:11:39.785Z,14.58
2019-03-03T09:12:39.780Z,14.47
2019-03-03T09:13:39.783Z,14.33
2019-03-03T09:14:39.770Z,14.36
2019-03-03T09:15:39.765Z,14.36
2019-03-03T09:16:39.753Z,14.35
2019-03-03T09:17:39.748Z,14.2
2019-03-03T09:18:39.748Z,14.18
2019-03-03T09:19:39.737Z,14.24
2019-03-03T09:20:39.729Z,14.22
2019-03-03T09:21:39.721Z,14.18
2019-03-03T09:22:39.714Z,14.18
2019-03-03T09:23:39.709Z,14.22
2019-03-03T09:24:39.701Z,14.12
2019-03-03T09:25:39.692Z,14.12
2019-03-03T09:26:39.683Z,14.2
2019-03-03T09:27:39.678Z,14.15
2019-03-03T09:28:39.672Z,14.15
2019-03-03T09:29:39.665Z,14.22
2019-03-03T09:30:39.657Z,14.28
2019-03-03T09:31:39.650Z,14.25
2019-03-03T09:32:39.646Z,14.32
2019-03-03T09:33:41.861Z,14.24
2019-03-03T09:34:39.639Z,14.27
2019-03-03T09:35:39.623Z,14.27
2019-03-03T09:36:39.619Z,14.32
2019-03-03T09:37:39.610Z,14.18
2019-03-03T09:38:39.600Z,14.24
2019-03-03T09:39:39.616Z,14.25
2019-03-03T09:40:39.588Z,14.21
2019-03-03T09:41:39.582Z,14.22
2019-03-03T09:42:39.574Z,14.21
2019-03-03T09:43:39.566Z,14.24
2019-03-03T09:44:39.560Z,14.27
2019-03-03T09:45:39.550Z,14.27
2019-03-03T09:46:39.547Z,14.29
2019-03-03T09:47:39.539Z,14.33
2019-03-03T09:48:39.529Z,14.28
2019-03-03T09:49:39.522Z,14.25
2019-03-03T09:50:39.515Z,14.25
2019-03-03T09:51:39.508Z,14.25
2019-03-03T09:52:39.502Z,14.33
2019-03-03T09:53:39.499Z,14.24
2019-03-03T09:54:39.489Z,14.27
2019-03-03T09:55:39.482Z,14.28
2019-03-03T09:56:39.472Z,14.18
2019-03-03T09:57:39.467Z,14.14
2019-03-03T09:58:39.461Z,14.04
2019-03-03T09:59:39.453Z,13.95
2019-03-03T10:00:39.747Z,13.85
2019-03-03T10:01:39.434Z,13.91
2019-03-03T10:02:39.432Z,14.1
2019-03-03T10:03:39.427Z,14.06
2019-03-03T10:04:39.413Z,14.09
2019-03-03T10:05:39.407Z,14.14
2019-03-03T10:06:39.399Z,14.14
2019-03-03T10:07:39.396Z,14.18
2019-03-03T10:08:39.408Z,14.2
2019-03-03T10:09:39.378Z,14.22
2019-03-03T10:10:39.372Z,14.29
2019-03-03T10:11:39.371Z,14.32
2019-03-03T10:12:39.357Z,14.21
2019-03-03T10:13:39.347Z,14.2
2019-03-03T10:14:39.341Z,14.22
2019-03-03T10:15:39.332Z,14.24
2019-03-03T10:16:39.332Z,14.2
2019-03-03T10:17:39.322Z,14.28
2019-03-03T10:18:39.316Z,14.33
2019-03-03T10:19:39.306Z,14.25
2019-03-03T10:20:39.296Z,14.32
2019-03-03T10:21:39.288Z,14.27
2019-03-03T10:22:39.288Z,14.39
2019-03-03T10:23:39.050Z,14.45
2019-03-03T10:24:39.269Z,14.55
2019-03-03T10:25:39.265Z,14.58
2019-03-03T10:26:39.909Z,14.6
2019-03-03T10:27:39.258Z,14.6
2019-03-03T10:28:39.242Z,14.55
2019-03-03T10:29:39.233Z,14.54
2019-03-03T10:30:39.227Z,14.61
2019-03-03T10:31:39.226Z,14.62
2019-03-03T10:32:39.212Z,14.6
2019-03-03T10:33:39.216Z,14.57
2019-03-03T10:34:39.208Z,14.5
2019-03-03T10:35:39.190Z,14.51
2019-03-03T10:36:39.186Z,14.58
2019-03-03T10:37:39.178Z,14.54
2019-03-03T10:38:41.147Z,14.58
2019-03-03T10:39:39.166Z,14.55
2019-03-03T10:40:39.159Z,14.57
2019-03-03T10:41:39.154Z,14.58
2019-03-03T10:42:39.160Z,14.57
2019-03-03T10:43:39.136Z,14.52
2019-03-03T10:44:39.134Z,14.6
2019-03-03T10:45:39.124Z,14.57
2019-03-03T10:46:39.125Z,14.6
2019-03-03T10:47:39.116Z,14.51
2019-03-03T10:48:39.103Z,14.61
2019-03-03T10:49:39.102Z,14.51
2019-03-03T10:50:39.089Z,14.52
2019-03-03T10:51:39.084Z,14.57
2019-03-03T10:52:39.075Z,14.55
2019-03-03T10:53:39.068Z,14.58
2019-03-03T10:54:39.060Z,14.4
2019-03-03T10:55:39.106Z,14.47
2019-03-03T10:56:39.046Z,14.45
2019-03-03T10:57:39.043Z,14.39
2019-03-03T10:58:39.034Z,14.47
2019-03-03T10:59:39.028Z,14.46
2019-03-03T11:00:39.024Z,14.42
2019-03-03T11:01:39.008Z,14.36
2019-03-03T11:02:39.011Z,14.42
2019-03-03T11:03:38.997Z,14.4
2019-03-03T11:04:38.989Z,14.45
2019-03-03T11:05:38.981Z,14.32
2019-03-03T11:06:38.974Z,14.29
2019-03-03T11:07:38.969Z,14.27
2019-03-03T11:08:38.966Z,14.2
2019-03-03T11:09:38.953Z,14.17
2019-03-03T11:10:38.949Z,14.2
2019-03-03T11:11:38.938Z,14.18
2019-03-03T11:12:38.932Z,14.14
2019-03-03T11:13:38.926Z,14.07
2019-03-03T11:14:38.917Z,14.07
2019-03-03T11:15:38.909Z,14.04
2019-03-03T11:16:38.908Z,13.89
2019-03-03T11:17:38.898Z,13.84
2019-03-03T11:18:38.903Z,13.81
2019-03-03T11:19:38.883Z,13.87
2019-03-03T11:20:38.872Z,13.85
2019-03-03T11:21:38.865Z,13.88
2019-03-03T11:22:38.860Z,13.85
2019-03-03T11:23:38.859Z,13.87
2019-03-03T11:24:38.846Z,13.88
2019-03-03T11:25:38.838Z,13.79
2019-03-03T11:26:38.829Z,13.71
2019-03-03T11:27:38.825Z,13.87
2019-03-03T11:28:38.816Z,13.91
2019-03-03T11:29:38.812Z,13.87
2019-03-03T11:30:41.591Z,13.96
2019-03-03T11:31:38.790Z,14.04
2019-03-03T11:32:38.781Z,14.02
2019-03-03T11:33:38.774Z,13.99
2019-03-03T11:34:38.770Z,14.06
2019-03-03T11:35:38.766Z,14.06
2019-03-03T11:36:38.753Z,14.09
2019-03-03T11:37:38.749Z,14.18
2019-03-03T11:38:38.738Z,14.14
2019-03-03T11:39:38.729Z,14.14
2019-03-03T11:40:38.722Z,14.2
2019-03-03T11:41:38.722Z,14.21
2019-03-03T11:42:38.713Z,14.22
2019-03-03T11:43:38.708Z,14.28
2019-03-03T11:44:38.695Z,14.24
2019-03-03T11:45:38.690Z,14.24
2019-03-03T11:46:38.692Z,14.46
2019-03-03T11:47:38.682Z,14.39
2019-03-03T11:48:38.661Z,14.4
2019-03-03T11:49:38.660Z,14.52
2019-03-03T11:50:38.649Z,14.52
2019-03-03T11:51:38.648Z,14.6
2019-03-03T11:52:38.642Z,14.62
2019-03-03T11:53:38.633Z,14.57
2019-03-03T11:54:38.627Z,14.64
2019-03-03T11:55:38.613Z,14.65
2019-03-03T11:56:38.610Z,14.68
2019-03-03T11:57:38.615Z,14.64
2019-03-03T11:58:38.598Z,14.69
2019-03-03T11:59:38.590Z,14.69
2019-03-03T12:00:38.584Z,14.7
2019-03-03T12:01:38.576Z,14.6
2019-03-03T12:02:38.569Z,14.61
2019-03-03T12:03:38.576Z,14.55
2019-03-03T12:04:38.554Z,14.57
2019-03-03T12:05:38.845Z,14.57
2019-03-03T12:06:38.539Z,14.55
2019-03-03T12:07:38.537Z,14.69
2019-03-03T12:08:38.526Z,14.61
2019-03-03T12:09:38.519Z,14.68
2019-03-03T12:10:38.974Z,14.69
2019-03-03T12:11:38.504Z,14.68
2019-03-03T12:12:38.510Z,14.58
2019-03-03T12:13:38.490Z,14.62
2019-03-03T12:14:38.692Z,14.62
2019-03-03T12:15:38.477Z,14.6
2019-03-03T12:16:38.224Z,14.55
2019-03-03T12:17:38.463Z,14.57
2019-03-03T12:18:38.469Z,14.55
2019-03-03T12:19:38.452Z,14.4
2019-03-03T12:20:38.447Z,14.36
2019-03-03T12:21:38.441Z,14.35
2019-03-03T12:22:38.430Z,14.43
2019-03-03T12:23:38.421Z,14.43
2019-03-03T12:24:38.413Z,14.46
2019-03-03T12:25:38.408Z,14.46
2019-03-03T12:26:38.397Z,14.45
2019-03-03T12:27:38.394Z,14.51
2019-03-03T12:28:38.386Z,14.42
2019-03-03T12:29:38.380Z,14.27
2019-03-03T12:30:38.375Z,14.33
2019-03-03T12:31:38.366Z,14.25
2019-03-03T12:32:38.380Z,14.29
2019-03-03T12:33:38.352Z,14.27
2019-03-03T12:34:38.346Z,14.35
2019-03-03T12:35:38.333Z,14.22
2019-03-03T12:36:38.329Z,14.25
2019-03-03T12:37:38.322Z,14.18
2019-03-03T12:38:38.320Z,14.18
2019-03-03T12:39:38.369Z,14.15
2019-03-03T12:40:38.304Z,14.2
2019-03-03T12:41:38.299Z,14.24
2019-03-03T12:42:38.287Z,14.2
2019-03-03T12:43:38.281Z,14.15
2019-03-03T12:44:38.318Z,14.2
2019-03-03T12:45:38.263Z,14.32
2019-03-03T12:46:38.254Z,14.29
2019-03-03T12:47:38.250Z,14.29
2019-03-03T12:48:38.243Z,14.25
2019-03-03T12:49:38.232Z,14.27
2019-03-03T12:50:38.223Z,14.27
2019-03-03T12:51:38.222Z,14.39
2019-03-03T12:52:38.215Z,14.33
2019-03-03T12:53:38.207Z,14.36
2019-03-03T12:54:38.194Z,14.36
2019-03-03T12:55:38.190Z,14.51
2019-03-03T12:56:38.187Z,14.46
2019-03-03T12:57:38.173Z,14.55
2019-03-03T12:58:38.171Z,14.51
2019-03-03T12:59:38.160Z,14.61
2019-03-03T13:00:38.154Z,14.72
2019-03-03T13:01:38.149Z,14.7
2019-03-03T13:02:38.142Z,14.77
2019-03-03T13:03:38.131Z,14.86
2019-03-03T13:04:38.127Z,14.84
2019-03-03T13:05:38.117Z,14.92
2019-03-03T13:06:38.110Z,14.98
2019-03-03T13:07:38.108Z,14.94
2019-03-03T13:08:38.100Z,15.07